sensor_id;sensor_type;location;lat;lon;timestamp;P1;durP1;ratioP1;P2;durP2;ratioP2
36379;SDS011;22411;53.016;18.632;2024-03-23T00:55:53;15.32;;;5.45;;
36379;SDS011;22411;53.016;18.632;2024-03-23T00:58:18;12.00;;;5.25;;
36379;SDS011;22411;53.016;18.632;2024-03-23T01:00:44;23.60;;;7.15;;
36379;SDS011;22411;53.016;18.632;2024-03-23T01:03:10;16.38;;;6.88;;
36379;SDS011;22411;53.016;18.632;2024-03-23T01:05:35;10.35;;;4.82;;
36379;SDS011;22411;53.016;18.632;2024-03-23T01:08:01;6.90;;;3.65;;
36379;SDS011;22411;53.016;18.632;2024-03-23T01:10:27;8.63;;;3.33;;
36379;SDS011;22411;53.016;18.632;2024-03-23T01:12:53;10.52;;;4.22;;
36379;SDS011;22411;53.016;18.632;2024-03-23T01:15:19;7.38;;;3.22;;
36379;SDS011;22411;53.016;18.632;2024-03-23T01:17:44;9.88;;;3.50;;
36379;SDS011;22411;53.016;18.632;2024-03-23T01:20:10;11.73;;;3.75;;
36379;SDS011;22411;53.016;18.632;2024-03-23T01:22:36;9.43;;;3.90;;
36379;SDS011;22411;53.016;18.632;2024-03-23T01:25:01;7.55;;;3.17;;
36379;SDS011;22411;53.016;18.632;2024-03-23T01:27:27;9.60;;;2.28;;
36379;SDS011;22411;53.016;18.632;2024-03-23T01:29:53;13.13;;;3.50;;
36379;SDS011;22411;53.016;18.632;2024-03-23T01:32:19;9.25;;;3.05;;
36379;SDS011;22411;53.016;18.632;2024-03-23T01:34:44;10.60;;;2.53;;
36379;SDS011;22411;53.016;18.632;2024-03-23T01:37:10;9.00;;;3.13;;
36379;SDS011;22411;53.016;18.632;2024-03-23T01:39:36;8.95;;;2.72;;
36379;SDS011;22411;53.016;18.632;2024-03-23T01:42:02;16.25;;;3.90;;
36379;SDS011;22411;53.016;18.632;2024-03-23T01:44:27;11.75;;;4.07;;
36379;SDS011;22411;53.016;18.632;2024-03-23T01:46:53;10.00;;;2.95;;
36379;SDS011;22411;53.016;18.632;2024-03-23T01:49:19;12.32;;;3.03;;
36379;SDS011;22411;53.016;18.632;2024-03-23T01:51:46;10.40;;;3.50;;
36379;SDS011;22411;53.016;18.632;2024-03-23T01:54:12;13.05;;;3.97;;
36379;SDS011;22411;53.016;18.632;2024-03-23T01:56:38;5.18;;;3.08;;
36379;SDS011;22411;53.016;18.632;2024-03-23T01:59:04;10.55;;;3.70;;
36379;SDS011;22411;53.016;18.632;2024-03-23T02:01:40;9.30;;;2.63;;
36379;SDS011;22411;53.016;18.632;2024-03-23T02:04:06;7.97;;;3.45;;
36379;SDS011;22411;53.016;18.632;2024-03-23T02:06:32;10.85;;;2.95;;
36379;SDS011;22411;53.016;18.632;2024-03-23T02:08:58;9.73;;;2.72;;
36379;SDS011;22411;53.016;18.632;2024-03-23T02:11:25;12.50;;;2.75;;
36379;SDS011;22411;53.016;18.632;2024-03-23T02:13:51;7.93;;;2.20;;
36379;SDS011;22411;53.016;18.632;2024-03-23T02:16:16;12.00;;;2.97;;
36379;SDS011;22411;53.016;18.632;2024-03-23T02:18:42;13.60;;;3.00;;
36379;SDS011;22411;53.016;18.632;2024-03-23T02:21:08;9.07;;;2.28;;
36379;SDS011;22411;53.016;18.632;2024-03-23T02:23:33;16.00;;;2.85;;
36379;SDS011;22411;53.016;18.632;2024-03-23T02:25:59;15.05;;;2.60;;
36379;SDS011;22411;53.016;18.632;2024-03-23T02:28:25;9.95;;;2.55;;
36379;SDS011;22411;53.016;18.632;2024-03-23T02:30:51;8.65;;;2.67;;
36379;SDS011;22411;53.016;18.632;2024-03-23T02:33:17;10.23;;;2.13;;
36379;SDS011;22411;53.016;18.632;2024-03-23T02:35:43;11.27;;;2.67;;
36379;SDS011;22411;53.016;18.632;2024-03-23T02:38:10;14.07;;;2.40;;
36379;SDS011;22411;53.016;18.632;2024-03-23T02:40:36;14.68;;;3.70;;
36379;SDS011;22411;53.016;18.632;2024-03-23T02:43:02;11.52;;;2.75;;
36379;SDS011;22411;53.016;18.632;2024-03-23T02:45:29;7.03;;;2.47;;
36379;SDS011;22411;53.016;18.632;2024-03-23T02:47:54;14.27;;;2.90;;
36379;SDS011;22411;53.016;18.632;2024-03-23T02:50:20;11.13;;;2.05;;
36379;SDS011;22411;53.016;18.632;2024-03-23T02:52:47;9.27;;;2.63;;
36379;SDS011;22411;53.016;18.632;2024-03-23T02:55:13;9.55;;;2.15;;
36379;SDS011;22411;53.016;18.632;2024-03-23T02:57:39;11.18;;;2.85;;
36379;SDS011;22411;53.016;18.632;2024-03-23T03:00:05;9.30;;;2.97;;
36379;SDS011;22411;53.016;18.632;2024-03-23T03:02:32;10.05;;;2.80;;
36379;SDS011;22411;53.016;18.632;2024-03-23T03:04:59;7.70;;;1.88;;
36379;SDS011;22411;53.016;18.632;2024-03-23T03:07:25;10.23;;;3.40;;
36379;SDS011;22411;53.016;18.632;2024-03-23T03:09:51;9.45;;;4.63;;
36379;SDS011;22411;53.016;18.632;2024-03-23T03:12:16;13.88;;;3.13;;
36379;SDS011;22411;53.016;18.632;2024-03-23T03:14:42;13.30;;;4.50;;
36379;SDS011;22411;53.016;18.632;2024-03-23T03:17:08;11.38;;;3.40;;
36379;SDS011;22411;53.016;18.632;2024-03-23T03:19:34;10.55;;;2.78;;
36379;SDS011;22411;53.016;18.632;2024-03-23T03:21:59;9.57;;;4.22;;
36379;SDS011;22411;53.016;18.632;2024-03-23T03:24:25;7.70;;;2.88;;
36379;SDS011;22411;53.016;18.632;2024-03-23T03:26:51;12.68;;;2.88;;
36379;SDS011;22411;53.016;18.632;2024-03-23T03:29:17;11.98;;;2.95;;
36379;SDS011;22411;53.016;18.632;2024-03-23T03:31:43;7.25;;;2.70;;
36379;SDS011;22411;53.016;18.632;2024-03-23T03:34:09;8.73;;;3.17;;
36379;SDS011;22411;53.016;18.632;2024-03-23T03:36:35;14.60;;;3.83;;
36379;SDS011;22411;53.016;18.632;2024-03-23T03:39:01;12.02;;;3.45;;
36379;SDS011;22411;53.016;18.632;2024-03-23T03:41:28;13.18;;;3.22;;
36379;SDS011;22411;53.016;18.632;2024-03-23T03:43:54;10.88;;;3.25;;
36379;SDS011;22411;53.016;18.632;2024-03-23T03:46:20;9.57;;;3.10;;
36379;SDS011;22411;53.016;18.632;2024-03-23T03:48:46;10.07;;;3.25;;
36379;SDS011;22411;53.016;18.632;2024-03-23T03:51:13;15.80;;;4.18;;
36379;SDS011;22411;53.016;18.632;2024-03-23T03:53:39;11.52;;;2.95;;
36379;SDS011;22411;53.016;18.632;2024-03-23T03:56:05;12.50;;;3.47;;
36379;SDS011;22411;53.016;18.632;2024-03-23T03:58:31;15.35;;;4.03;;
36379;SDS011;22411;53.016;18.632;2024-03-23T04:00:56;6.97;;;2.90;;
36379;SDS011;22411;53.016;18.632;2024-03-23T04:03:22;11.40;;;4.57;;
36379;SDS011;22411;53.016;18.632;2024-03-23T04:05:54;12.82;;;4.30;;
36379;SDS011;22411;53.016;18.632;2024-03-23T04:08:20;12.02;;;3.67;;
36379;SDS011;22411;53.016;18.632;2024-03-23T04:10:46;9.00;;;2.90;;
36379;SDS011;22411;53.016;18.632;2024-03-23T04:13:12;11.27;;;3.78;;
36379;SDS011;22411;53.016;18.632;2024-03-23T04:15:38;8.23;;;2.55;;
36379;SDS011;22411;53.016;18.632;2024-03-23T04:18:05;15.98;;;2.95;;
36379;SDS011;22411;53.016;18.632;2024-03-23T04:20:30;11.80;;;2.13;;
36379;SDS011;22411;53.016;18.632;2024-03-23T04:23:00;6.03;;;1.80;;
36379;SDS011;22411;53.016;18.632;2024-03-23T04:25:26;6.40;;;2.03;;
36379;SDS011;22411;53.016;18.632;2024-03-23T04:27:52;6.50;;;1.80;;
36379;SDS011;22411;53.016;18.632;2024-03-23T04:30:18;9.60;;;2.25;;
36379;SDS011;22411;53.016;18.632;2024-03-23T04:32:44;9.23;;;2.50;;
36379;SDS011;22411;53.016;18.632;2024-03-23T04:35:10;7.95;;;3.30;;
36379;SDS011;22411;53.016;18.632;2024-03-23T04:37:36;8.90;;;3.30;;
36379;SDS011;22411;53.016;18.632;2024-03-23T04:40:03;8.85;;;4.00;;
36379;SDS011;22411;53.016;18.632;2024-03-23T04:42:29;12.30;;;3.40;;
36379;SDS011;22411;53.016;18.632;2024-03-23T04:44:56;10.90;;;3.47;;
36379;SDS011;22411;53.016;18.632;2024-03-23T04:47:22;7.68;;;2.13;;
36379;SDS011;22411;53.016;18.632;2024-03-23T04:49:48;10.55;;;2.80;;
36379;SDS011;22411;53.016;18.632;2024-03-23T04:52:14;12.45;;;1.77;;
36379;SDS011;22411;53.016;18.632;2024-03-23T04:54:40;10.35;;;2.92;;
36379;SDS011;22411;53.016;18.632;2024-03-23T04:57:06;9.57;;;2.45;;
36379;SDS011;22411;53.016;18.632;2024-03-23T04:59:32;18.00;;;4.90;;
36379;SDS011;22411;53.016;18.632;2024-03-23T05:01:58;9.93;;;2.60;;
36379;SDS011;22411;53.016;18.632;2024-03-23T05:04:26;11.68;;;3.30;;
36379;SDS011;22411;53.016;18.632;2024-03-23T05:06:52;11.88;;;4.72;;
36379;SDS011;22411;53.016;18.632;2024-03-23T05:09:17;13.38;;;5.78;;
36379;SDS011;22411;53.016;18.632;2024-03-23T05:11:43;8.68;;;3.33;;
36379;SDS011;22411;53.016;18.632;2024-03-23T05:14:09;13.35;;;4.10;;
36379;SDS011;22411;53.016;18.632;2024-03-23T05:16:35;14.65;;;3.67;;
36379;SDS011;22411;53.016;18.632;2024-03-23T05:19:00;12.55;;;3.63;;
36379;SDS011;22411;53.016;18.632;2024-03-23T05:21:26;13.40;;;3.60;;
36379;SDS011;22411;53.016;18.632;2024-03-23T05:23:53;36.25;;;16.85;;
36379;SDS011;22411;53.016;18.632;2024-03-23T05:26:21;23.27;;;12.23;;
36379;SDS011;22411;53.016;18.632;2024-03-23T05:28:47;20.13;;;8.57;;
36379;SDS011;22411;53.016;18.632;2024-03-23T05:31:22;15.32;;;7.28;;
36379;SDS011;22411;53.016;18.632;2024-03-23T05:33:48;28.20;;;8.57;;
36379;SDS011;22411;53.016;18.632;2024-03-23T05:36:14;23.25;;;8.75;;
36379;SDS011;22411;53.016;18.632;2024-03-23T05:38:40;19.08;;;9.95;;
36379;SDS011;22411;53.016;18.632;2024-03-23T05:41:05;22.85;;;10.15;;
36379;SDS011;22411;53.016;18.632;2024-03-23T05:43:31;13.40;;;7.43;;
36379;SDS011;22411;53.016;18.632;2024-03-23T05:45:57;15.95;;;7.93;;
36379;SDS011;22411;53.016;18.632;2024-03-23T05:48:25;18.38;;;9.25;;
36379;SDS011;22411;53.016;18.632;2024-03-23T05:50:52;24.83;;;10.55;;
36379;SDS011;22411;53.016;18.632;2024-03-23T05:53:18;31.35;;;18.73;;
36379;SDS011;22411;53.016;18.632;2024-03-23T05:55:48;23.80;;;14.10;;
36379;SDS011;22411;53.016;18.632;2024-03-23T05:58:15;15.52;;;7.35;;
36379;SDS011;22411;53.016;18.632;2024-03-23T06:00:42;30.77;;;12.52;;
36379;SDS011;22411;53.016;18.632;2024-03-23T06:03:08;64.63;;;36.97;;
36379;SDS011;22411;53.016;18.632;2024-03-23T06:05:35;37.97;;;23.33;;
36379;SDS011;22411;53.016;18.632;2024-03-23T06:08:00;21.70;;;10.07;;
36379;SDS011;22411;53.016;18.632;2024-03-23T06:10:26;11.13;;;7.10;;
36379;SDS011;22411;53.016;18.632;2024-03-23T06:12:53;17.00;;;6.05;;
36379;SDS011;22411;53.016;18.632;2024-03-23T06:15:19;15.23;;;7.53;;
36379;SDS011;22411;53.016;18.632;2024-03-23T06:17:45;16.30;;;8.35;;
36379;SDS011;22411;53.016;18.632;2024-03-23T06:20:11;24.60;;;13.70;;
36379;SDS011;22411;53.016;18.632;2024-03-23T06:22:38;23.50;;;14.50;;
36379;SDS011;22411;53.016;18.632;2024-03-23T06:25:04;17.42;;;8.68;;
36379;SDS011;22411;53.016;18.632;2024-03-23T06:27:30;17.83;;;12.15;;
36379;SDS011;22411;53.016;18.632;2024-03-23T06:29:57;22.95;;;11.50;;
36379;SDS011;22411;53.016;18.632;2024-03-23T06:32:23;21.30;;;10.73;;
36379;SDS011;22411;53.016;18.632;2024-03-23T06:34:49;18.08;;;8.07;;
36379;SDS011;22411;53.016;18.632;2024-03-23T06:37:15;28.85;;;21.83;;
36379;SDS011;22411;53.016;18.632;2024-03-23T06:39:40;30.25;;;18.80;;
36379;SDS011;22411;53.016;18.632;2024-03-23T06:42:06;22.77;;;10.15;;
36379;SDS011;22411;53.016;18.632;2024-03-23T06:44:33;17.30;;;6.07;;
36379;SDS011;22411;53.016;18.632;2024-03-23T06:46:59;40.30;;;17.20;;
36379;SDS011;22411;53.016;18.632;2024-03-23T06:49:25;35.58;;;16.27;;
36379;SDS011;22411;53.016;18.632;2024-03-23T06:51:51;31.05;;;17.70;;
36379;SDS011;22411;53.016;18.632;2024-03-23T06:54:20;26.17;;;14.25;;
36379;SDS011;22411;53.016;18.632;2024-03-23T06:56:45;21.05;;;7.50;;
36379;SDS011;22411;53.016;18.632;2024-03-23T06:59:12;21.95;;;9.68;;
36379;SDS011;22411;53.016;18.632;2024-03-23T07:01:37;15.35;;;9.00;;
36379;SDS011;22411;53.016;18.632;2024-03-23T07:04:03;19.13;;;5.57;;
36379;SDS011;22411;53.016;18.632;2024-03-23T07:06:29;13.52;;;3.78;;
36379;SDS011;22411;53.016;18.632;2024-03-23T07:08:56;10.40;;;3.63;;
36379;SDS011;22411;53.016;18.632;2024-03-23T07:11:22;31.67;;;11.82;;
36379;SDS011;22411;53.016;18.632;2024-03-23T07:13:51;29.17;;;12.43;;
36379;SDS011;22411;53.016;18.632;2024-03-23T07:16:20;23.27;;;11.75;;
36379;SDS011;22411;53.016;18.632;2024-03-23T07:18:46;17.38;;;7.93;;
36379;SDS011;22411;53.016;18.632;2024-03-23T07:21:12;12.90;;;4.97;;
36379;SDS011;22411;53.016;18.632;2024-03-23T07:23:41;23.65;;;7.32;;
36379;SDS011;22411;53.016;18.632;2024-03-23T07:28:35;13.73;;;4.78;;
36379;SDS011;22411;53.016;18.632;2024-03-23T07:33:31;10.20;;;4.72;;
36379;SDS011;22411;53.016;18.632;2024-03-23T07:35:57;9.90;;;4.57;;
36379;SDS011;22411;53.016;18.632;2024-03-23T07:38:25;18.70;;;4.70;;
36379;SDS011;22411;53.016;18.632;2024-03-23T07:40:52;12.90;;;5.43;;
36379;SDS011;22411;53.016;18.632;2024-03-23T07:43:21;17.13;;;6.45;;
36379;SDS011;22411;53.016;18.632;2024-03-23T07:45:51;14.23;;;4.68;;
36379;SDS011;22411;53.016;18.632;2024-03-23T07:48:18;12.82;;;4.68;;
36379;SDS011;22411;53.016;18.632;2024-03-23T07:50:44;18.20;;;4.43;;
36379;SDS011;22411;53.016;18.632;2024-03-23T07:53:10;16.17;;;4.38;;
36379;SDS011;22411;53.016;18.632;2024-03-23T07:55:35;12.27;;;4.20;;
36379;SDS011;22411;53.016;18.632;2024-03-23T07:58:01;14.93;;;4.10;;
36379;SDS011;22411;53.016;18.632;2024-03-23T08:00:27;10.77;;;3.08;;
36379;SDS011;22411;53.016;18.632;2024-03-23T08:02:53;8.45;;;3.08;;
36379;SDS011;22411;53.016;18.632;2024-03-23T08:05:21;9.40;;;2.53;;
36379;SDS011;22411;53.016;18.632;2024-03-23T08:07:49;11.43;;;3.60;;
36379;SDS011;22411;53.016;18.632;2024-03-23T08:10:15;7.57;;;4.03;;
36379;SDS011;22411;53.016;18.632;2024-03-23T08:12:45;12.18;;;3.33;;
36379;SDS011;22411;53.016;18.632;2024-03-23T08:15:11;9.30;;;2.78;;
36379;SDS011;22411;53.016;18.632;2024-03-23T08:17:37;10.98;;;4.40;;
36379;SDS011;22411;53.016;18.632;2024-03-23T08:20:03;31.80;;;15.60;;
36379;SDS011;22411;53.016;18.632;2024-03-23T08:22:29;22.60;;;10.07;;
36379;SDS011;22411;53.016;18.632;2024-03-23T08:24:54;16.27;;;5.80;;
36379;SDS011;22411;53.016;18.632;2024-03-23T08:27:20;11.75;;;4.68;;
36379;SDS011;22411;53.016;18.632;2024-03-23T08:29:46;16.27;;;5.93;;
36379;SDS011;22411;53.016;18.632;2024-03-23T08:32:11;20.38;;;11.77;;
36379;SDS011;22411;53.016;18.632;2024-03-23T08:34:37;23.23;;;12.02;;
36379;SDS011;22411;53.016;18.632;2024-03-23T08:37:03;24.02;;;16.85;;
36379;SDS011;22411;53.016;18.632;2024-03-23T08:39:29;18.85;;;8.35;;
36379;SDS011;22411;53.016;18.632;2024-03-23T08:41:55;12.77;;;6.03;;
36379;SDS011;22411;53.016;18.632;2024-03-23T08:44:20;20.05;;;8.60;;
36379;SDS011;22411;53.016;18.632;2024-03-23T08:46:46;21.33;;;9.95;;
36379;SDS011;22411;53.016;18.632;2024-03-23T08:49:12;16.65;;;7.55;;
36379;SDS011;22411;53.016;18.632;2024-03-23T08:51:39;10.68;;;4.38;;
36379;SDS011;22411;53.016;18.632;2024-03-23T08:54:04;12.43;;;5.80;;
36379;SDS011;22411;53.016;18.632;2024-03-23T08:56:30;10.88;;;5.03;;
36379;SDS011;22411;53.016;18.632;2024-03-23T08:58:56;10.63;;;3.42;;
36379;SDS011;22411;53.016;18.632;2024-03-23T09:01:22;11.63;;;5.20;;
36379;SDS011;22411;53.016;18.632;2024-03-23T09:03:48;9.52;;;4.45;;
36379;SDS011;22411;53.016;18.632;2024-03-23T09:06:14;11.70;;;4.75;;
36379;SDS011;22411;53.016;18.632;2024-03-23T09:08:40;11.55;;;4.90;;
36379;SDS011;22411;53.016;18.632;2024-03-23T09:11:07;13.13;;;5.70;;
36379;SDS011;22411;53.016;18.632;2024-03-23T09:13:35;26.95;;;10.65;;
36379;SDS011;22411;53.016;18.632;2024-03-23T09:16:01;29.13;;;13.27;;
36379;SDS011;22411;53.016;18.632;2024-03-23T09:18:27;16.73;;;8.35;;
36379;SDS011;22411;53.016;18.632;2024-03-23T09:20:53;15.38;;;6.15;;
36379;SDS011;22411;53.016;18.632;2024-03-23T09:23:22;10.52;;;4.18;;
36379;SDS011;22411;53.016;18.632;2024-03-23T09:25:48;8.73;;;3.75;;
36379;SDS011;22411;53.016;18.632;2024-03-23T09:28:14;10.85;;;4.35;;
36379;SDS011;22411;53.016;18.632;2024-03-23T09:30:40;9.00;;;3.20;;
36379;SDS011;22411;53.016;18.632;2024-03-23T09:33:09;8.63;;;2.25;;
36379;SDS011;22411;53.016;18.632;2024-03-23T09:35:39;10.55;;;2.15;;
36379;SDS011;22411;53.016;18.632;2024-03-23T09:38:05;7.57;;;2.22;;
36379;SDS011;22411;53.016;18.632;2024-03-23T09:40:33;10.90;;;5.32;;
36379;SDS011;22411;53.016;18.632;2024-03-23T09:42:59;11.93;;;5.18;;
36379;SDS011;22411;53.016;18.632;2024-03-23T09:45:28;20.05;;;8.00;;
36379;SDS011;22411;53.016;18.632;2024-03-23T09:47:54;9.60;;;5.47;;
36379;SDS011;22411;53.016;18.632;2024-03-23T09:50:21;8.57;;;2.80;;
36379;SDS011;22411;53.016;18.632;2024-03-23T09:52:47;12.40;;;3.42;;
36379;SDS011;22411;53.016;18.632;2024-03-23T09:55:13;10.35;;;5.93;;
36379;SDS011;22411;53.016;18.632;2024-03-23T09:57:40;10.45;;;4.25;;
36379;SDS011;22411;53.016;18.632;2024-03-23T10:00:06;14.00;;;7.18;;
36379;SDS011;22411;53.016;18.632;2024-03-23T10:02:33;22.13;;;16.98;;
36379;SDS011;22411;53.016;18.632;2024-03-23T10:05:00;36.38;;;30.80;;
36379;SDS011;22411;53.016;18.632;2024-03-23T10:07:26;13.88;;;8.23;;
36379;SDS011;22411;53.016;18.632;2024-03-23T10:09:56;12.82;;;5.88;;
36379;SDS011;22411;53.016;18.632;2024-03-23T10:12:22;9.23;;;3.65;;
36379;SDS011;22411;53.016;18.632;2024-03-23T10:14:49;40.53;;;32.85;;
36379;SDS011;22411;53.016;18.632;2024-03-23T10:17:16;62.90;;;53.22;;
36379;SDS011;22411;53.016;18.632;2024-03-23T10:19:45;56.45;;;50.35;;
36379;SDS011;22411;53.016;18.632;2024-03-23T10:22:14;46.35;;;41.03;;
36379;SDS011;22411;53.016;18.632;2024-03-23T10:24:43;25.58;;;20.30;;
36379;SDS011;22411;53.016;18.632;2024-03-23T10:27:09;8.95;;;3.47;;
36379;SDS011;22411;53.016;18.632;2024-03-23T10:29:35;10.27;;;3.70;;
36379;SDS011;22411;53.016;18.632;2024-03-23T10:35:13;5.07;;;1.30;;
36379;SDS011;22411;53.016;18.632;2024-03-23T10:37:44;9.88;;;3.38;;
36379;SDS011;22411;53.016;18.632;2024-03-23T10:40:11;7.50;;;3.20;;
36379;SDS011;22411;53.016;18.632;2024-03-23T10:42:38;9.07;;;2.75;;
36379;SDS011;22411;53.016;18.632;2024-03-23T10:45:05;8.90;;;2.22;;
36379;SDS011;22411;53.016;18.632;2024-03-23T10:47:33;12.70;;;3.00;;
36379;SDS011;22411;53.016;18.632;2024-03-23T10:50:02;8.68;;;5.70;;
36379;SDS011;22411;53.016;18.632;2024-03-23T10:52:29;11.73;;;3.58;;
36379;SDS011;22411;53.016;18.632;2024-03-23T10:54:55;4.80;;;2.25;;
36379;SDS011;22411;53.016;18.632;2024-03-23T10:57:37;7.57;;;3.72;;
36379;SDS011;22411;53.016;18.632;2024-03-23T11:00:08;9.50;;;3.53;;
36379;SDS011;22411;53.016;18.632;2024-03-23T11:02:35;11.88;;;3.85;;
36379;SDS011;22411;53.016;18.632;2024-03-23T11:05:01;8.82;;;4.53;;
36379;SDS011;22411;53.016;18.632;2024-03-23T11:07:49;12.43;;;3.67;;
36379;SDS011;22411;53.016;18.632;2024-03-23T11:10:29;8.70;;;3.45;;
36379;SDS011;22411;53.016;18.632;2024-03-23T11:12:56;12.30;;;5.20;;
36379;SDS011;22411;53.016;18.632;2024-03-23T11:15:22;14.93;;;4.85;;
36379;SDS011;22411;53.016;18.632;2024-03-23T11:18:04;7.85;;;3.10;;
36379;SDS011;22411;53.016;18.632;2024-03-23T11:20:31;5.97;;;2.65;;
36379;SDS011;22411;53.016;18.632;2024-03-23T11:22:57;7.55;;;2.58;;
36379;SDS011;22411;53.016;18.632;2024-03-23T11:25:25;10.55;;;4.05;;
36379;SDS011;22411;53.016;18.632;2024-03-23T11:27:55;9.73;;;4.10;;
36379;SDS011;22411;53.016;18.632;2024-03-23T11:32:50;7.78;;;3.42;;
36379;SDS011;22411;53.016;18.632;2024-03-23T11:35:29;7.82;;;3.15;;
36379;SDS011;22411;53.016;18.632;2024-03-23T11:38:08;6.25;;;1.88;;
36379;SDS011;22411;53.016;18.632;2024-03-23T11:40:49;3.47;;;2.17;;
36379;SDS011;22411;53.016;18.632;2024-03-23T11:43:15;4.72;;;1.63;;
36379;SDS011;22411;53.016;18.632;2024-03-23T11:48:10;8.15;;;3.72;;
36379;SDS011;22411;53.016;18.632;2024-03-23T11:50:38;12.80;;;10.75;;
36379;SDS011;22411;53.016;18.632;2024-03-23T11:58:13;4.30;;;1.80;;
36379;SDS011;22411;53.016;18.632;2024-03-23T12:00:40;7.28;;;2.75;;
36379;SDS011;22411;53.016;18.632;2024-03-23T12:03:06;5.07;;;1.40;;
36379;SDS011;22411;53.016;18.632;2024-03-23T12:05:32;4.82;;;1.30;;
36379;SDS011;22411;53.016;18.632;2024-03-23T12:08:18;4.57;;;1.20;;
36379;SDS011;22411;53.016;18.632;2024-03-23T12:10:48;5.45;;;1.02;;
36379;SDS011;22411;53.016;18.632;2024-03-23T12:13:15;4.18;;;1.55;;
36379;SDS011;22411;53.016;18.632;2024-03-23T12:15:43;8.13;;;2.25;;
36379;SDS011;22411;53.016;18.632;2024-03-23T12:18:10;4.88;;;1.35;;
36379;SDS011;22411;53.016;18.632;2024-03-23T12:20:37;4.68;;;1.90;;
36379;SDS011;22411;53.016;18.632;2024-03-23T12:23:06;4.40;;;2.00;;
36379;SDS011;22411;53.016;18.632;2024-03-23T12:25:37;3.45;;;1.23;;
36379;SDS011;22411;53.016;18.632;2024-03-23T12:28:04;8.27;;;1.10;;
36379;SDS011;22411;53.016;18.632;2024-03-23T12:30:34;5.97;;;1.90;;
36379;SDS011;22411;53.016;18.632;2024-03-23T12:33:01;4.32;;;1.30;;
36379;SDS011;22411;53.016;18.632;2024-03-23T12:35:26;4.45;;;1.33;;
36379;SDS011;22411;53.016;18.632;2024-03-23T12:37:52;3.67;;;1.77;;
36379;SDS011;22411;53.016;18.632;2024-03-23T12:40:18;3.65;;;1.67;;
36379;SDS011;22411;53.016;18.632;2024-03-23T12:42:43;7.43;;;1.90;;
36379;SDS011;22411;53.016;18.632;2024-03-23T12:45:09;5.22;;;1.67;;
36379;SDS011;22411;53.016;18.632;2024-03-23T12:47:35;5.10;;;2.85;;
36379;SDS011;22411;53.016;18.632;2024-03-23T12:50:01;9.23;;;4.70;;
36379;SDS011;22411;53.016;18.632;2024-03-23T12:52:27;7.10;;;2.17;;
36379;SDS011;22411;53.016;18.632;2024-03-23T12:54:54;5.60;;;2.42;;
36379;SDS011;22411;53.016;18.632;2024-03-23T12:57:22;6.30;;;2.25;;
36379;SDS011;22411;53.016;18.632;2024-03-23T12:59:54;7.55;;;3.83;;
36379;SDS011;22411;53.016;18.632;2024-03-23T13:02:20;9.88;;;4.95;;
36379;SDS011;22411;53.016;18.632;2024-03-23T13:04:55;8.07;;;4.32;;
36379;SDS011;22411;53.016;18.632;2024-03-23T13:07:21;15.50;;;11.27;;
36379;SDS011;22411;53.016;18.632;2024-03-23T13:09:50;15.95;;;8.30;;
36379;SDS011;22411;53.016;18.632;2024-03-23T13:12:17;13.60;;;8.00;;
36379;SDS011;22411;53.016;18.632;2024-03-23T13:14:44;13.32;;;8.68;;
36379;SDS011;22411;53.016;18.632;2024-03-23T13:17:11;20.58;;;10.13;;
36379;SDS011;22411;53.016;18.632;2024-03-23T13:19:37;25.75;;;15.50;;
36379;SDS011;22411;53.016;18.632;2024-03-23T13:22:04;26.95;;;17.85;;
36379;SDS011;22411;53.016;18.632;2024-03-23T13:24:30;12.40;;;9.80;;
36379;SDS011;22411;53.016;18.632;2024-03-23T13:26:55;7.15;;;6.30;;
36379;SDS011;22411;53.016;18.632;2024-03-23T13:29:22;4.57;;;2.53;;
36379;SDS011;22411;53.016;18.632;2024-03-23T13:31:48;5.85;;;2.33;;
36379;SDS011;22411;53.016;18.632;2024-03-23T13:34:15;8.05;;;3.60;;
36379;SDS011;22411;53.016;18.632;2024-03-23T13:36:45;9.80;;;3.75;;
36379;SDS011;22411;53.016;18.632;2024-03-23T13:39:12;11.25;;;3.47;;
36379;SDS011;22411;53.016;18.632;2024-03-23T13:41:39;4.07;;;2.40;;
36379;SDS011;22411;53.016;18.632;2024-03-23T13:46:40;6.60;;;2.42;;
36379;SDS011;22411;53.016;18.632;2024-03-23T13:49:24;4.97;;;1.98;;
36379;SDS011;22411;53.016;18.632;2024-03-23T13:51:57;4.70;;;2.22;;
36379;SDS011;22411;53.016;18.632;2024-03-23T13:54:24;6.40;;;3.08;;
36379;SDS011;22411;53.016;18.632;2024-03-23T13:56:50;3.97;;;2.35;;
36379;SDS011;22411;53.016;18.632;2024-03-23T13:59:16;7.47;;;2.88;;
36379;SDS011;22411;53.016;18.632;2024-03-23T14:01:43;4.22;;;2.70;;
36379;SDS011;22411;53.016;18.632;2024-03-23T14:04:10;8.05;;;2.97;;
36379;SDS011;22411;53.016;18.632;2024-03-23T14:06:36;6.43;;;3.85;;
36379;SDS011;22411;53.016;18.632;2024-03-23T14:09:02;6.47;;;5.57;;
36379;SDS011;22411;53.016;18.632;2024-03-23T14:11:29;11.40;;;5.55;;
36379;SDS011;22411;53.016;18.632;2024-03-23T14:13:55;10.75;;;5.43;;
36379;SDS011;22411;53.016;18.632;2024-03-23T14:16:20;10.35;;;4.95;;
36379;SDS011;22411;53.016;18.632;2024-03-23T14:18:47;10.50;;;6.93;;
36379;SDS011;22411;53.016;18.632;2024-03-23T14:21:12;10.77;;;5.70;;
36379;SDS011;22411;53.016;18.632;2024-03-23T14:23:38;16.50;;;8.40;;
36379;SDS011;22411;53.016;18.632;2024-03-23T14:26:06;14.70;;;9.73;;
36379;SDS011;22411;53.016;18.632;2024-03-23T14:28:32;11.20;;;6.07;;
36379;SDS011;22411;53.016;18.632;2024-03-23T14:30:58;9.38;;;4.70;;
36379;SDS011;22411;53.016;18.632;2024-03-23T14:33:24;9.68;;;4.97;;
36379;SDS011;22411;53.016;18.632;2024-03-23T14:35:56;7.38;;;3.40;;
36379;SDS011;22411;53.016;18.632;2024-03-23T14:38:23;7.57;;;3.80;;
36379;SDS011;22411;53.016;18.632;2024-03-23T14:40:49;11.65;;;5.43;;
36379;SDS011;22411;53.016;18.632;2024-03-23T14:43:15;7.88;;;3.83;;
36379;SDS011;22411;53.016;18.632;2024-03-23T14:48:38;8.10;;;4.72;;
36379;SDS011;22411;53.016;18.632;2024-03-23T14:51:05;11.35;;;4.93;;
36379;SDS011;22411;53.016;18.632;2024-03-23T14:53:32;12.30;;;5.20;;
36379;SDS011;22411;53.016;18.632;2024-03-23T14:56:01;8.20;;;5.10;;
36379;SDS011;22411;53.016;18.632;2024-03-23T14:58:28;11.70;;;6.05;;
36379;SDS011;22411;53.016;18.632;2024-03-23T15:01:01;11.57;;;5.45;;
36379;SDS011;22411;53.016;18.632;2024-03-23T15:03:27;11.73;;;5.22;;
36379;SDS011;22411;53.016;18.632;2024-03-23T15:05:57;7.22;;;4.53;;
36379;SDS011;22411;53.016;18.632;2024-03-23T15:08:24;11.30;;;5.72;;
36379;SDS011;22411;53.016;18.632;2024-03-23T15:10:50;9.07;;;5.30;;
36379;SDS011;22411;53.016;18.632;2024-03-23T15:13:16;11.02;;;7.07;;
36379;SDS011;22411;53.016;18.632;2024-03-23T15:15:42;13.07;;;6.80;;
36379;SDS011;22411;53.016;18.632;2024-03-23T15:18:10;12.85;;;7.55;;
36379;SDS011;22411;53.016;18.632;2024-03-23T15:20:37;15.13;;;7.32;;
36379;SDS011;22411;53.016;18.632;2024-03-23T15:23:04;7.93;;;3.90;;
36379;SDS011;22411;53.016;18.632;2024-03-23T15:25:30;6.28;;;2.60;;
36379;SDS011;22411;53.016;18.632;2024-03-23T15:27:57;4.20;;;1.92;;
36379;SDS011;22411;53.016;18.632;2024-03-23T15:30:26;5.97;;;2.45;;
36379;SDS011;22411;53.016;18.632;2024-03-23T15:32:52;5.85;;;2.10;;
36379;SDS011;22411;53.016;18.632;2024-03-23T15:35:18;5.90;;;2.95;;
36379;SDS011;22411;53.016;18.632;2024-03-23T15:37:46;4.90;;;1.20;;
36379;SDS011;22411;53.016;18.632;2024-03-23T15:40:12;4.37;;;1.90;;
36379;SDS011;22411;53.016;18.632;2024-03-23T15:42:38;5.47;;;1.00;;